Hickory Grove, Mississippi
Current Conditions -  °F | °C
As of 6:35 AM on Monday 22 Dec 2014 (Local Time) from KSTF Reporting Station
Haze Haze  
Wind Chill: 50°   Ceiling: 300
Heat Index: 50°   Visibility: 1.7mi
Dew Point: 50°   Wind: 7mph
Humidity: 100%   Direction: 130°SE
Pressure: 29.89"   Gusts: NA
Location:  33.4256°N, 88.8438°W
Report Text: KSTF 221235Z AUTO 13006KT 1 3/4SM BR OVC003 10/10 A2989 RMK AO2
Loading
Personal Weather Stations






























Interactive Weather Map New forecast layout! Learn more

10-Day Weather Forecast

Advertisements
Track Severe Weather on mobile